KCSM/CSM METAR and TAF weather

Enter ICAO airport designator
Station Type Date Time Source
KCSM METAR 2019/06/17 12:53 UTC NOAA

KCSM 171253Z AUTO 32008KT 10SM CLR 19/17 A2996 RMK AO2 SLP127 T01940172


Station Type Date Time Source
KCSM Decoded METAR 2019/06/17 12:53 UTC NOAA

CLINTON-SHERMAN AIRPORT, OK, United States (KCSM) 35-21E 99-12W 588M
Jun 17, 2019 - 08:53 AM EDT / 2019.06.17 1253 UTC
Wind: from the NW (320 degrees) at 9 MPH (8 KT):0
Visibility: 10 mile(s):0
Sky conditions: clear
Temperature: 66.9 F (19.4 C)
Dew Point: 63.0 F (17.2 C)
Relative Humidity: 87%
Pressure (altimeter): 29.96 in. Hg (1014 hPa)
ob: KCSM 171253Z AUTO 32008KT 10SM CLR 19/17 A2996 RMK AO2 SLP127 T01940172
cycle: 13

Station Type Date Time Source
KCSM TAF 2019/06/17 12:30 UTC NOAA

TAF KCSM 171127Z 1712/1812 33007KT P6SM SCT150 BKN250
FM172100 12006KT P6SM FEW250
FM180300 14006KT P6SM BKN250

Example: see airport list